NCAR-RAP Real-Time Weather Data

Output produced by METARs form (23 February 2020  02:37 UTC)
found at http://weather.rap.ucar.edu/surface/
 
KACT 230151Z 13007KT 10SM CLR 12/04 A3020 RMK AO2 SLP227 T01170044 $
KACT 230051Z 14009KT 10SM CLR 12/04 A3020 RMK AO2 SLP227 T01220039 $
KACT 222351Z 13012KT 10SM CLR 13/04 A3020 RMK AO2 SLP227 T01330039 10150 20111 56022 $
KACT 222251Z 14011KT 10SM CLR 14/04 A3020 RMK AO2 SLP226 T01440039 $
KACT 222151Z AUTO 14012KT 10SM CLR 14/04 A3024 RMK AO2 SLP239 T01390044 $
KACT 222051Z 15010KT 10SM CLR 15/04 A3027 RMK AO2 SLP247 T01500044 58037 $
KACT 221951Z 18010KT 10SM FEW065 14/04 A3030 RMK AO2 SLP259 T01390039 $
KACT 221851Z 18008KT 10SM BKN070 12/03 A3036 RMK AO2 SLP280 T01220033 $
KACT 221751Z 18011KT 10SM OVC065 12/03 A3038 RMK AO2 SLP286 T01170028 10117 20044 58013 $
KACT 221651Z 16010KT 10SM OVC065 11/02 A3040 RMK AO2 SLP295 T01060022 $
KACT 221551Z 16010KT 10SM OVC060 09/02 A3041 RMK AO2 SLP298 T00890017 $
KACT 221451Z 15009KT 10SM OVC060 08/01 A3042 RMK AO2 SLP300 T00780006 53000 $
KACT 221351Z 15008KT 10SM BKN065 07/00 A3039 RMK AO2 SLP290 T00670000 $
KACT 221251Z 15009KT 10SM OVC060 06/00 A3038 RMK AO2 SLP290 T00610000 $
KACT 221151Z AUTO 16006KT 10SM FEW060 04/M01 A3041 RMK AO2 SLP299 T00441011 10061 20044 55005
KACT 221051Z AUTO 15005KT 10SM OVC060 06/00 A3041 RMK AO2 SLP297 T00560000
KACT 220951Z AUTO 16006KT 10SM BKN065 06/M01 A3042 RMK AO2 SLP302 T00611006
KACT 220851Z AUTO 15007KT 10SM OVC100 06/01 A3043 RMK AO2 SLP304 T00610006 58016
KACT 220751Z AUTO 17006KT 10SM CLR 04/M01 A3046 RMK AO2 SLP315 T00441006
KACT 220651Z AUTO 16004KT 10SM CLR 06/00 A3047 RMK AO2 SLP317 T00560000
KACT 220551Z AUTO 14003KT 10SM CLR 06/01 A3048 RMK AO2 SLP322 T00560006 10094 20056 401110000 58003
KACT 220451Z 15004KT 10SM CLR 07/00 A3050 RMK AO2 SLP329 T00670000
KACT 220351Z 16003KT 10SM CLR 06/01 A3051 RMK AO2 SLP333 T00610006